sensor_id;sensor_type;location;lat;lon;timestamp;temperature;humidity
21393;DHT22;10857;52.228;21.026;2023-08-01T00:00:58;21.50;58.50
21393;DHT22;10857;52.228;21.026;2023-08-01T00:03:26;21.50;58.50
21393;DHT22;10857;52.228;21.026;2023-08-01T00:05:53;21.40;58.50
21393;DHT22;10857;52.228;21.026;2023-08-01T00:08:21;21.40;58.50
21393;DHT22;10857;52.228;21.026;2023-08-01T00:10:48;21.40;58.50
21393;DHT22;10857;52.228;21.026;2023-08-01T00:13:15;21.40;58.50
21393;DHT22;10857;52.228;21.026;2023-08-01T00:15:42;21.30;58.60
21393;DHT22;10857;52.228;21.026;2023-08-01T00:18:26;21.30;58.60
21393;DHT22;10857;52.228;21.026;2023-08-01T00:20:53;21.40;58.60
21393;DHT22;10857;52.228;21.026;2023-08-01T00:23:20;21.40;58.60
21393;DHT22;10857;52.228;21.026;2023-08-01T00:25:47;21.40;58.60
21393;DHT22;10857;52.228;21.026;2023-08-01T00:28:18;21.30;58.60
21393;DHT22;10857;52.228;21.026;2023-08-01T00:30:45;21.30;58.60
21393;DHT22;10857;52.228;21.026;2023-08-01T00:33:12;21.20;58.60
21393;DHT22;10857;52.228;21.026;2023-08-01T00:35:40;21.20;58.60
21393;DHT22;10857;52.228;21.026;2023-08-01T00:38:07;21.20;58.60
21393;DHT22;10857;52.228;21.026;2023-08-01T00:40:34;21.30;58.60
21393;DHT22;10857;52.228;21.026;2023-08-01T00:43:01;21.30;58.60
21393;DHT22;10857;52.228;21.026;2023-08-01T00:45:30;21.20;58.60
21393;DHT22;10857;52.228;21.026;2023-08-01T00:47:57;21.30;58.60
21393;DHT22;10857;52.228;21.026;2023-08-01T00:50:24;21.30;58.60
21393;DHT22;10857;52.228;21.026;2023-08-01T00:52:52;21.30;58.60
21393;DHT22;10857;52.228;21.026;2023-08-01T00:55:19;21.20;58.60
21393;DHT22;10857;52.228;21.026;2023-08-01T00:57:48;21.20;58.60
21393;DHT22;10857;52.228;21.026;2023-08-01T01:00:15;21.10;58.60
21393;DHT22;10857;52.228;21.026;2023-08-01T01:02:42;21.20;58.60
21393;DHT22;10857;52.228;21.026;2023-08-01T01:05:10;21.20;58.60
21393;DHT22;10857;52.228;21.026;2023-08-01T01:07:38;21.20;58.60
21393;DHT22;10857;52.228;21.026;2023-08-01T01:10:06;21.20;58.60
21393;DHT22;10857;52.228;21.026;2023-08-01T01:12:33;21.30;58.60
21393;DHT22;10857;52.228;21.026;2023-08-01T01:15:00;21.20;58.60
21393;DHT22;10857;52.228;21.026;2023-08-01T01:17:27;21.30;58.60
21393;DHT22;10857;52.228;21.026;2023-08-01T01:19:54;21.30;58.60
21393;DHT22;10857;52.228;21.026;2023-08-01T01:22:21;21.30;58.60
21393;DHT22;10857;52.228;21.026;2023-08-01T01:24:49;21.30;58.60
21393;DHT22;10857;52.228;21.026;2023-08-01T01:27:17;21.30;58.60
21393;DHT22;10857;52.228;21.026;2023-08-01T01:29:45;21.30;58.60
21393;DHT22;10857;52.228;21.026;2023-08-01T01:32:14;21.30;58.50
21393;DHT22;10857;52.228;21.026;2023-08-01T01:34:41;21.30;58.50
21393;DHT22;10857;52.228;21.026;2023-08-01T01:37:08;21.30;58.60
21393;DHT22;10857;52.228;21.026;2023-08-01T01:39:35;21.30;58.60
21393;DHT22;10857;52.228;21.026;2023-08-01T01:42:02;21.20;58.60
21393;DHT22;10857;52.228;21.026;2023-08-01T01:44:30;21.10;58.60
21393;DHT22;10857;52.228;21.026;2023-08-01T01:46:57;21.10;58.60
21393;DHT22;10857;52.228;21.026;2023-08-01T01:49:24;21.00;58.70
21393;DHT22;10857;52.228;21.026;2023-08-01T01:51:52;20.90;58.80
21393;DHT22;10857;52.228;21.026;2023-08-01T01:54:19;20.80;58.80
21393;DHT22;10857;52.228;21.026;2023-08-01T01:56:46;20.80;58.80
21393;DHT22;10857;52.228;21.026;2023-08-01T01:59:14;20.80;58.90
21393;DHT22;10857;52.228;21.026;2023-08-01T02:01:40;20.70;58.90
21393;DHT22;10857;52.228;21.026;2023-08-01T02:04:08;20.70;58.90
21393;DHT22;10857;52.228;21.026;2023-08-01T02:06:35;20.60;58.90
21393;DHT22;10857;52.228;21.026;2023-08-01T02:09:02;20.60;58.90
21393;DHT22;10857;52.228;21.026;2023-08-01T02:11:29;20.60;58.90
21393;DHT22;10857;52.228;21.026;2023-08-01T02:13:56;20.60;58.90
21393;DHT22;10857;52.228;21.026;2023-08-01T02:16:23;20.60;58.90
21393;DHT22;10857;52.228;21.026;2023-08-01T02:18:50;20.60;58.90
21393;DHT22;10857;52.228;21.026;2023-08-01T02:21:17;20.60;58.90
21393;DHT22;10857;52.228;21.026;2023-08-01T02:23:44;20.50;59.00
21393;DHT22;10857;52.228;21.026;2023-08-01T02:26:12;20.50;59.00
21393;DHT22;10857;52.228;21.026;2023-08-01T02:28:39;20.50;59.00
21393;DHT22;10857;52.228;21.026;2023-08-01T02:31:07;20.40;59.00
21393;DHT22;10857;52.228;21.026;2023-08-01T02:33:34;20.40;59.00
21393;DHT22;10857;52.228;21.026;2023-08-01T02:36:01;20.40;59.00
21393;DHT22;10857;52.228;21.026;2023-08-01T02:38:28;20.40;59.00
21393;DHT22;10857;52.228;21.026;2023-08-01T02:40:55;20.30;59.00
21393;DHT22;10857;52.228;21.026;2023-08-01T02:43:22;20.30;59.00
21393;DHT22;10857;52.228;21.026;2023-08-01T02:45:49;20.40;59.00
21393;DHT22;10857;52.228;21.026;2023-08-01T02:48:16;20.40;59.00
21393;DHT22;10857;52.228;21.026;2023-08-01T02:50:43;20.40;59.00
21393;DHT22;10857;52.228;21.026;2023-08-01T02:53:10;20.30;59.00
21393;DHT22;10857;52.228;21.026;2023-08-01T02:55:37;20.30;59.00
21393;DHT22;10857;52.228;21.026;2023-08-01T02:58:05;20.40;59.00
21393;DHT22;10857;52.228;21.026;2023-08-01T03:00:32;20.30;59.00
21393;DHT22;10857;52.228;21.026;2023-08-01T03:02:59;20.40;59.00
21393;DHT22;10857;52.228;21.026;2023-08-01T03:05:26;20.30;59.00
21393;DHT22;10857;52.228;21.026;2023-08-01T03:07:53;20.30;59.00
21393;DHT22;10857;52.228;21.026;2023-08-01T03:10:20;20.30;59.00
21393;DHT22;10857;52.228;21.026;2023-08-01T03:13:02;20.40;59.00
21393;DHT22;10857;52.228;21.026;2023-08-01T03:15:29;20.30;59.00
21393;DHT22;10857;52.228;21.026;2023-08-01T03:17:56;20.30;59.00
21393;DHT22;10857;52.228;21.026;2023-08-01T03:20:23;20.30;59.00
21393;DHT22;10857;52.228;21.026;2023-08-01T03:22:51;20.30;59.00
21393;DHT22;10857;52.228;21.026;2023-08-01T03:25:18;20.30;59.00
21393;DHT22;10857;52.228;21.026;2023-08-01T03:27:45;20.30;59.00
21393;DHT22;10857;52.228;21.026;2023-08-01T03:30:12;20.30;59.00
21393;DHT22;10857;52.228;21.026;2023-08-01T03:32:39;20.30;59.00
21393;DHT22;10857;52.228;21.026;2023-08-01T03:35:07;20.30;59.00
21393;DHT22;10857;52.228;21.026;2023-08-01T03:37:34;20.30;59.00
21393;DHT22;10857;52.228;21.026;2023-08-01T03:40:01;20.20;59.00
21393;DHT22;10857;52.228;21.026;2023-08-01T03:42:28;20.30;59.00
21393;DHT22;10857;52.228;21.026;2023-08-01T03:44:56;20.30;59.00
21393;DHT22;10857;52.228;21.026;2023-08-01T03:47:23;20.30;59.00
21393;DHT22;10857;52.228;21.026;2023-08-01T03:49:50;20.30;59.00
21393;DHT22;10857;52.228;21.026;2023-08-01T03:52:17;20.30;59.00
21393;DHT22;10857;52.228;21.026;2023-08-01T03:54:44;20.30;59.00
21393;DHT22;10857;52.228;21.026;2023-08-01T03:57:14;20.30;59.00
21393;DHT22;10857;52.228;21.026;2023-08-01T03:59:41;20.30;59.00
21393;DHT22;10857;52.228;21.026;2023-08-01T04:02:09;20.30;59.00
21393;DHT22;10857;52.228;21.026;2023-08-01T04:04:36;20.40;59.00
21393;DHT22;10857;52.228;21.026;2023-08-01T04:07:03;20.40;59.00
21393;DHT22;10857;52.228;21.026;2023-08-01T04:09:31;20.40;59.00
21393;DHT22;10857;52.228;21.026;2023-08-01T04:11:58;20.40;59.00
21393;DHT22;10857;52.228;21.026;2023-08-01T04:14:25;20.50;58.90
21393;DHT22;10857;52.228;21.026;2023-08-01T04:16:51;20.50;58.90
21393;DHT22;10857;52.228;21.026;2023-08-01T04:19:18;20.40;58.90
21393;DHT22;10857;52.228;21.026;2023-08-01T04:21:45;20.40;58.90
21393;DHT22;10857;52.228;21.026;2023-08-01T04:24:12;20.40;58.90
21393;DHT22;10857;52.228;21.026;2023-08-01T04:26:39;20.50;58.90
21393;DHT22;10857;52.228;21.026;2023-08-01T04:29:06;20.50;58.90
21393;DHT22;10857;52.228;21.026;2023-08-01T04:31:33;20.50;58.90
21393;DHT22;10857;52.228;21.026;2023-08-01T04:34:00;20.60;58.90
21393;DHT22;10857;52.228;21.026;2023-08-01T04:36:27;20.60;58.90
21393;DHT22;10857;52.228;21.026;2023-08-01T04:38:54;20.60;58.90
21393;DHT22;10857;52.228;21.026;2023-08-01T04:41:21;20.70;58.90
21393;DHT22;10857;52.228;21.026;2023-08-01T04:43:48;20.60;58.90
21393;DHT22;10857;52.228;21.026;2023-08-01T04:46:15;20.70;58.80
21393;DHT22;10857;52.228;21.026;2023-08-01T04:48:42;20.70;58.80
21393;DHT22;10857;52.228;21.026;2023-08-01T04:51:09;20.70;58.80
21393;DHT22;10857;52.228;21.026;2023-08-01T04:53:36;20.70;58.80
21393;DHT22;10857;52.228;21.026;2023-08-01T04:56:03;20.70;58.80
21393;DHT22;10857;52.228;21.026;2023-08-01T04:58:30;20.70;58.80
21393;DHT22;10857;52.228;21.026;2023-08-01T05:00:57;20.70;58.80
21393;DHT22;10857;52.228;21.026;2023-08-01T05:03:24;20.80;58.80
21393;DHT22;10857;52.228;21.026;2023-08-01T05:05:51;20.80;58.80
21393;DHT22;10857;52.228;21.026;2023-08-01T05:08:18;20.90;58.80
21393;DHT22;10857;52.228;21.026;2023-08-01T05:10:45;20.90;58.80
21393;DHT22;10857;52.228;21.026;2023-08-01T05:13:13;21.00;58.80
21393;DHT22;10857;52.228;21.026;2023-08-01T05:15:39;21.00;58.70
21393;DHT22;10857;52.228;21.026;2023-08-01T05:18:07;21.00;58.70
21393;DHT22;10857;52.228;21.026;2023-08-01T05:20:33;21.10;58.70
21393;DHT22;10857;52.228;21.026;2023-08-01T05:23:01;21.20;58.70
21393;DHT22;10857;52.228;21.026;2023-08-01T05:25:28;21.30;58.70
21393;DHT22;10857;52.228;21.026;2023-08-01T05:27:55;21.30;58.70
21393;DHT22;10857;52.228;21.026;2023-08-01T05:30:22;21.40;58.60
21393;DHT22;10857;52.228;21.026;2023-08-01T05:32:49;21.40;58.60
21393;DHT22;10857;52.228;21.026;2023-08-01T05:35:17;21.50;58.60
21393;DHT22;10857;52.228;21.026;2023-08-01T05:37:44;21.50;58.60
21393;DHT22;10857;52.228;21.026;2023-08-01T05:40:13;21.60;58.60
21393;DHT22;10857;52.228;21.026;2023-08-01T05:42:40;21.60;58.50
21393;DHT22;10857;52.228;21.026;2023-08-01T05:45:07;21.60;58.50
21393;DHT22;10857;52.228;21.026;2023-08-01T05:47:35;21.70;58.50
21393;DHT22;10857;52.228;21.026;2023-08-01T05:50:03;21.70;58.50
21393;DHT22;10857;52.228;21.026;2023-08-01T05:52:30;21.70;58.50
21393;DHT22;10857;52.228;21.026;2023-08-01T05:54:57;21.80;58.50
21393;DHT22;10857;52.228;21.026;2023-08-01T05:57:25;21.80;58.50
21393;DHT22;10857;52.228;21.026;2023-08-01T05:59:52;21.80;58.50
21393;DHT22;10857;52.228;21.026;2023-08-01T06:02:20;21.90;58.40
21393;DHT22;10857;52.228;21.026;2023-08-01T06:04:47;21.90;58.40
21393;DHT22;10857;52.228;21.026;2023-08-01T06:07:14;21.90;58.40
21393;DHT22;10857;52.228;21.026;2023-08-01T06:09:41;22.00;58.40
21393;DHT22;10857;52.228;21.026;2023-08-01T06:12:08;22.00;58.40
21393;DHT22;10857;52.228;21.026;2023-08-01T06:14:35;22.00;58.40
21393;DHT22;10857;52.228;21.026;2023-08-01T06:17:02;22.00;58.40
21393;DHT22;10857;52.228;21.026;2023-08-01T06:19:29;22.00;58.40
21393;DHT22;10857;52.228;21.026;2023-08-01T06:21:56;22.00;58.40
21393;DHT22;10857;52.228;21.026;2023-08-01T06:24:23;22.00;58.40
21393;DHT22;10857;52.228;21.026;2023-08-01T06:26:50;22.10;58.40
21393;DHT22;10857;52.228;21.026;2023-08-01T06:29:17;22.10;58.40
21393;DHT22;10857;52.228;21.026;2023-08-01T06:31:44;22.20;58.40
21393;DHT22;10857;52.228;21.026;2023-08-01T06:34:11;22.30;58.40
21393;DHT22;10857;52.228;21.026;2023-08-01T06:36:38;22.30;58.30
21393;DHT22;10857;52.228;21.026;2023-08-01T06:39:05;22.30;58.30
21393;DHT22;10857;52.228;21.026;2023-08-01T06:41:32;22.40;58.30
21393;DHT22;10857;52.228;21.026;2023-08-01T06:43:59;22.40;58.30
21393;DHT22;10857;52.228;21.026;2023-08-01T06:46:26;22.60;58.30
21393;DHT22;10857;52.228;21.026;2023-08-01T06:48:53;22.50;58.30
21393;DHT22;10857;52.228;21.026;2023-08-01T06:51:20;22.60;58.30
21393;DHT22;10857;52.228;21.026;2023-08-01T06:53:48;22.60;58.30
21393;DHT22;10857;52.228;21.026;2023-08-01T06:56:15;22.70;58.20
21393;DHT22;10857;52.228;21.026;2023-08-01T06:58:42;22.70;58.20
21393;DHT22;10857;52.228;21.026;2023-08-01T07:01:09;22.70;58.20
21393;DHT22;10857;52.228;21.026;2023-08-01T07:03:36;22.80;58.20
21393;DHT22;10857;52.228;21.026;2023-08-01T07:06:03;22.90;58.20
21393;DHT22;10857;52.228;21.026;2023-08-01T07:08:33;22.90;58.20
21393;DHT22;10857;52.228;21.026;2023-08-01T07:11:00;23.00;58.20
21393;DHT22;10857;52.228;21.026;2023-08-01T07:13:27;23.10;58.10
21393;DHT22;10857;52.228;21.026;2023-08-01T07:15:54;23.10;58.20
21393;DHT22;10857;52.228;21.026;2023-08-01T07:18:21;23.20;58.10
21393;DHT22;10857;52.228;21.026;2023-08-01T07:20:58;23.30;58.10
21393;DHT22;10857;52.228;21.026;2023-08-01T07:23:25;23.40;58.10
21393;DHT22;10857;52.228;21.026;2023-08-01T07:25:52;23.40;58.10
21393;DHT22;10857;52.228;21.026;2023-08-01T07:28:19;23.50;58.10
21393;DHT22;10857;52.228;21.026;2023-08-01T07:30:46;23.50;58.10
21393;DHT22;10857;52.228;21.026;2023-08-01T07:33:14;23.60;58.00
21393;DHT22;10857;52.228;21.026;2023-08-01T07:35:41;23.70;58.00
21393;DHT22;10857;52.228;21.026;2023-08-01T07:38:08;23.70;58.00
21393;DHT22;10857;52.228;21.026;2023-08-01T07:40:36;23.80;58.00
21393;DHT22;10857;52.228;21.026;2023-08-01T07:43:03;23.80;58.00
21393;DHT22;10857;52.228;21.026;2023-08-01T07:45:33;24.00;58.00
21393;DHT22;10857;52.228;21.026;2023-08-01T07:48:01;24.00;57.90
21393;DHT22;10857;52.228;21.026;2023-08-01T07:50:29;24.00;57.90
21393;DHT22;10857;52.228;21.026;2023-08-01T07:52:56;24.00;57.90
21393;DHT22;10857;52.228;21.026;2023-08-01T07:55:23;24.00;57.90
21393;DHT22;10857;52.228;21.026;2023-08-01T07:57:50;24.00;57.90
21393;DHT22;10857;52.228;21.026;2023-08-01T08:00:17;24.00;57.90
21393;DHT22;10857;52.228;21.026;2023-08-01T08:02:45;24.00;57.90
21393;DHT22;10857;52.228;21.026;2023-08-01T08:05:13;24.10;57.90
21393;DHT22;10857;52.228;21.026;2023-08-01T08:07:40;24.20;57.90
21393;DHT22;10857;52.228;21.026;2023-08-01T08:10:07;24.20;57.90
21393;DHT22;10857;52.228;21.026;2023-08-01T08:12:34;24.30;57.90
21393;DHT22;10857;52.228;21.026;2023-08-01T08:15:02;24.40;57.90
21393;DHT22;10857;52.228;21.026;2023-08-01T08:17:29;24.50;57.90
21393;DHT22;10857;52.228;21.026;2023-08-01T08:19:56;24.50;57.90
21393;DHT22;10857;52.228;21.026;2023-08-01T08:22:23;24.60;57.80
21393;DHT22;10857;52.228;21.026;2023-08-01T08:24:50;24.60;57.80
21393;DHT22;10857;52.228;21.026;2023-08-01T08:27:17;24.60;57.80
21393;DHT22;10857;52.228;21.026;2023-08-01T08:29:44;24.60;57.80
21393;DHT22;10857;52.228;21.026;2023-08-01T08:32:11;24.60;57.80
21393;DHT22;10857;52.228;21.026;2023-08-01T08:34:38;24.60;57.90
21393;DHT22;10857;52.228;21.026;2023-08-01T08:37:06;24.60;57.90
21393;DHT22;10857;52.228;21.026;2023-08-01T08:39:33;24.60;57.90
21393;DHT22;10857;52.228;21.026;2023-08-01T08:42:00;24.60;57.90
21393;DHT22;10857;52.228;21.026;2023-08-01T08:44:27;24.60;57.90
21393;DHT22;10857;52.228;21.026;2023-08-01T08:47:02;24.60;57.90
21393;DHT22;10857;52.228;21.026;2023-08-01T08:49:32;24.60;57.90
21393;DHT22;10857;52.228;21.026;2023-08-01T08:51:59;24.60;57.90
21393;DHT22;10857;52.228;21.026;2023-08-01T08:54:26;24.50;57.90
21393;DHT22;10857;52.228;21.026;2023-08-01T08:56:54;24.50;57.90
21393;DHT22;10857;52.228;21.026;2023-08-01T08:59:22;24.50;57.90
21393;DHT22;10857;52.228;21.026;2023-08-01T09:01:51;24.50;57.90
21393;DHT22;10857;52.228;21.026;2023-08-01T09:04:18;24.40;57.90
21393;DHT22;10857;52.228;21.026;2023-08-01T09:06:48;24.40;57.80
21393;DHT22;10857;52.228;21.026;2023-08-01T09:09:18;24.30;57.80
21393;DHT22;10857;52.228;21.026;2023-08-01T09:11:49;24.20;57.80
21393;DHT22;10857;52.228;21.026;2023-08-01T09:14:18;24.20;57.80
21393;DHT22;10857;52.228;21.026;2023-08-01T09:16:46;24.30;57.80
21393;DHT22;10857;52.228;21.026;2023-08-01T09:19:17;24.20;57.80
21393;DHT22;10857;52.228;21.026;2023-08-01T09:21:46;24.20;57.80
21393;DHT22;10857;52.228;21.026;2023-08-01T09:24:15;24.20;57.80
21393;DHT22;10857;52.228;21.026;2023-08-01T09:26:42;24.20;57.80
21393;DHT22;10857;52.228;21.026;2023-08-01T09:29:10;24.20;57.80
21393;DHT22;10857;52.228;21.026;2023-08-01T09:31:41;24.30;57.80
21393;DHT22;10857;52.228;21.026;2023-08-01T09:34:26;24.30;57.80
21393;DHT22;10857;52.228;21.026;2023-08-01T09:37:00;24.40;57.80
21393;DHT22;10857;52.228;21.026;2023-08-01T09:39:27;24.40;57.80
21393;DHT22;10857;52.228;21.026;2023-08-01T09:41:59;24.50;57.80
21393;DHT22;10857;52.228;21.026;2023-08-01T09:44:27;24.60;57.80
21393;DHT22;10857;52.228;21.026;2023-08-01T09:47:05;24.60;57.80
21393;DHT22;10857;52.228;21.026;2023-08-01T09:49:35;24.70;57.80
21393;DHT22;10857;52.228;21.026;2023-08-01T09:52:03;24.70;57.70
21393;DHT22;10857;52.228;21.026;2023-08-01T09:54:30;24.60;57.80
21393;DHT22;10857;52.228;21.026;2023-08-01T09:56:58;24.50;57.80
21393;DHT22;10857;52.228;21.026;2023-08-01T09:59:25;24.50;57.80
21393;DHT22;10857;52.228;21.026;2023-08-01T10:01:54;24.50;57.80
21393;DHT22;10857;52.228;21.026;2023-08-01T10:04:27;24.60;57.80
21393;DHT22;10857;52.228;21.026;2023-08-01T10:07:00;24.50;57.80
21393;DHT22;10857;52.228;21.026;2023-08-01T10:09:33;24.60;57.80
21393;DHT22;10857;52.228;21.026;2023-08-01T10:12:03;24.40;57.80
21393;DHT22;10857;52.228;21.026;2023-08-01T10:14:35;24.40;57.80
21393;DHT22;10857;52.228;21.026;2023-08-01T10:17:03;24.40;57.80
21393;DHT22;10857;52.228;21.026;2023-08-01T10:19:32;24.30;57.80
21393;DHT22;10857;52.228;21.026;2023-08-01T10:22:02;24.40;57.90
21393;DHT22;10857;52.228;21.026;2023-08-01T10:24:31;24.30;57.90
21393;DHT22;10857;52.228;21.026;2023-08-01T10:27:13;24.10;58.00
21393;DHT22;10857;52.228;21.026;2023-08-01T10:29:41;24.20;58.00
21393;DHT22;10857;52.228;21.026;2023-08-01T10:32:10;24.10;58.00
21393;DHT22;10857;52.228;21.026;2023-08-01T10:34:37;24.10;58.10
21393;DHT22;10857;52.228;21.026;2023-08-01T10:37:04;24.00;58.10
21393;DHT22;10857;52.228;21.026;2023-08-01T10:39:31;23.90;58.10
21393;DHT22;10857;52.228;21.026;2023-08-01T10:42:00;23.70;58.20
21393;DHT22;10857;52.228;21.026;2023-08-01T10:44:27;23.70;58.20
21393;DHT22;10857;52.228;21.026;2023-08-01T10:46:57;23.60;58.20
21393;DHT22;10857;52.228;21.026;2023-08-01T10:49:43;23.60;58.30
21393;DHT22;10857;52.228;21.026;2023-08-01T10:52:16;23.50;58.40
21393;DHT22;10857;52.228;21.026;2023-08-01T10:54:45;23.50;58.30
21393;DHT22;10857;52.228;21.026;2023-08-01T10:57:16;23.50;58.30
21393;DHT22;10857;52.228;21.026;2023-08-01T10:59:46;23.50;58.40
21393;DHT22;10857;52.228;21.026;2023-08-01T11:02:23;23.50;58.40
21393;DHT22;10857;52.228;21.026;2023-08-01T11:04:58;23.50;58.40
21393;DHT22;10857;52.228;21.026;2023-08-01T11:07:25;23.50;58.40
21393;DHT22;10857;52.228;21.026;2023-08-01T11:10:10;23.50;58.40
21393;DHT22;10857;52.228;21.026;2023-08-01T11:12:42;23.60;58.50
21393;DHT22;10857;52.228;21.026;2023-08-01T11:15:13;23.60;58.50
21393;DHT22;10857;52.228;21.026;2023-08-01T11:17:43;23.60;58.50
21393;DHT22;10857;52.228;21.026;2023-08-01T11:20:13;23.60;58.50
21393;DHT22;10857;52.228;21.026;2023-08-01T11:22:58;23.70;58.50
21393;DHT22;10857;52.228;21.026;2023-08-01T11:25:40;23.60;58.50
21393;DHT22;10857;52.228;21.026;2023-08-01T11:28:10;23.70;58.50
21393;DHT22;10857;52.228;21.026;2023-08-01T11:30:37;23.70;58.60
21393;DHT22;10857;52.228;21.026;2023-08-01T11:33:24;23.70;58.50
21393;DHT22;10857;52.228;21.026;2023-08-01T11:35:55;23.70;58.60
21393;DHT22;10857;52.228;21.026;2023-08-01T11:38:30;23.70;58.50
21393;DHT22;10857;52.228;21.026;2023-08-01T11:40:58;23.70;58.50
21393;DHT22;10857;52.228;21.026;2023-08-01T11:43:25;23.80;58.50
21393;DHT22;10857;52.228;21.026;2023-08-01T11:45:54;23.80;58.50
21393;DHT22;10857;52.228;21.026;2023-08-01T11:48:22;23.70;58.50
21393;DHT22;10857;52.228;21.026;2023-08-01T11:50:59;23.70;58.50
21393;DHT22;10857;52.228;21.026;2023-08-01T11:53:28;23.70;58.50
21393;DHT22;10857;52.228;21.026;2023-08-01T11:55:56;23.70;58.60
21393;DHT22;10857;52.228;21.026;2023-08-01T11:58:36;23.70;58.60
21393;DHT22;10857;52.228;21.026;2023-08-01T12:01:07;23.70;58.50
21393;DHT22;10857;52.228;21.026;2023-08-01T12:03:52;23.70;58.50
21393;DHT22;10857;52.228;21.026;2023-08-01T12:06:21;23.80;58.50
21393;DHT22;10857;52.228;21.026;2023-08-01T12:08:51;23.90;58.50
21393;DHT22;10857;52.228;21.026;2023-08-01T12:11:27;23.90;58.50
21393;DHT22;10857;52.228;21.026;2023-08-01T12:14:11;23.90;58.50
21393;DHT22;10857;52.228;21.026;2023-08-01T12:16:40;23.90;58.50
21393;DHT22;10857;52.228;21.026;2023-08-01T12:19:08;23.90;58.40
21393;DHT22;10857;52.228;21.026;2023-08-01T12:21:36;23.80;58.40
21393;DHT22;10857;52.228;21.026;2023-08-01T12:24:04;23.90;58.50
21393;DHT22;10857;52.228;21.026;2023-08-01T12:26:31;23.90;58.40
21393;DHT22;10857;52.228;21.026;2023-08-01T12:28:58;23.90;58.40
21393;DHT22;10857;52.228;21.026;2023-08-01T12:31:25;23.90;58.40
21393;DHT22;10857;52.228;21.026;2023-08-01T12:33:52;23.90;58.40
21393;DHT22;10857;52.228;21.026;2023-08-01T12:36:20;24.00;58.40
21393;DHT22;10857;52.228;21.026;2023-08-01T12:38:48;24.00;58.40
21393;DHT22;10857;52.228;21.026;2023-08-01T12:41:15;24.00;58.40
21393;DHT22;10857;52.228;21.026;2023-08-01T12:43:42;24.00;58.40
21393;DHT22;10857;52.228;21.026;2023-08-01T12:46:09;24.00;58.40
21393;DHT22;10857;52.228;21.026;2023-08-01T12:48:36;23.90;58.30
21393;DHT22;10857;52.228;21.026;2023-08-01T12:51:03;23.80;58.30
21393;DHT22;10857;52.228;21.026;2023-08-01T12:53:30;23.90;58.30
21393;DHT22;10857;52.228;21.026;2023-08-01T12:56:04;23.90;58.30
21393;DHT22;10857;52.228;21.026;2023-08-01T12:58:31;23.90;58.30
21393;DHT22;10857;52.228;21.026;2023-08-01T13:00:58;23.90;58.30
21393;DHT22;10857;52.228;21.026;2023-08-01T13:03:26;23.90;58.30
21393;DHT22;10857;52.228;21.026;2023-08-01T13:05:56;24.00;58.30
21393;DHT22;10857;52.228;21.026;2023-08-01T13:08:24;24.10;58.30
21393;DHT22;10857;52.228;21.026;2023-08-01T13:10:51;24.10;58.30
21393;DHT22;10857;52.228;21.026;2023-08-01T13:13:18;24.20;58.30
21393;DHT22;10857;52.228;21.026;2023-08-01T13:15:46;24.20;58.30
21393;DHT22;10857;52.228;21.026;2023-08-01T13:18:13;24.20;58.30
21393;DHT22;10857;52.228;21.026;2023-08-01T13:20:41;24.20;58.20
21393;DHT22;10857;52.228;21.026;2023-08-01T13:23:08;24.30;58.20
21393;DHT22;10857;52.228;21.026;2023-08-01T13:25:35;24.40;58.20
21393;DHT22;10857;52.228;21.026;2023-08-01T13:28:02;24.40;58.20
21393;DHT22;10857;52.228;21.026;2023-08-01T13:30:30;24.40;58.10
21393;DHT22;10857;52.228;21.026;2023-08-01T13:32:58;24.40;58.10
21393;DHT22;10857;52.228;21.026;2023-08-01T13:35:25;24.40;58.10
21393;DHT22;10857;52.228;21.026;2023-08-01T13:37:52;24.30;58.20
21393;DHT22;10857;52.228;21.026;2023-08-01T13:40:19;24.30;58.20
21393;DHT22;10857;52.228;21.026;2023-08-01T13:42:47;24.20;58.20
21393;DHT22;10857;52.228;21.026;2023-08-01T13:45:14;24.20;58.20
21393;DHT22;10857;52.228;21.026;2023-08-01T13:47:41;24.20;58.20
21393;DHT22;10857;52.228;21.026;2023-08-01T13:50:08;24.30;58.20
21393;DHT22;10857;52.228;21.026;2023-08-01T13:52:39;24.30;58.20
21393;DHT22;10857;52.228;21.026;2023-08-01T13:55:06;24.30;58.20
21393;DHT22;10857;52.228;21.026;2023-08-01T13:57:34;24.30;58.20
21393;DHT22;10857;52.228;21.026;2023-08-01T14:00:01;24.30;58.20
21393;DHT22;10857;52.228;21.026;2023-08-01T14:02:41;24.30;58.20
21393;DHT22;10857;52.228;21.026;2023-08-01T14:05:08;24.30;58.20
21393;DHT22;10857;52.228;21.026;2023-08-01T14:07:36;24.10;58.20
21393;DHT22;10857;52.228;21.026;2023-08-01T14:10:09;24.00;58.20
21393;DHT22;10857;52.228;21.026;2023-08-01T14:12:36;23.90;58.30
21393;DHT22;10857;52.228;21.026;2023-08-01T14:15:04;23.80;58.40
21393;DHT22;10857;52.228;21.026;2023-08-01T14:17:35;23.70;58.40
21393;DHT22;10857;52.228;21.026;2023-08-01T14:20:02;23.50;58.50
21393;DHT22;10857;52.228;21.026;2023-08-01T14:22:33;23.40;58.50
21393;DHT22;10857;52.228;21.026;2023-08-01T14:25:00;23.40;58.60
21393;DHT22;10857;52.228;21.026;2023-08-01T14:27:27;23.50;58.60
21393;DHT22;10857;52.228;21.026;2023-08-01T14:29:54;23.50;58.50
21393;DHT22;10857;52.228;21.026;2023-08-01T14:32:21;23.60;58.50
21393;DHT22;10857;52.228;21.026;2023-08-01T14:34:48;23.70;58.50
21393;DHT22;10857;52.228;21.026;2023-08-01T14:37:15;23.80;58.40
21393;DHT22;10857;52.228;21.026;2023-08-01T14:39:42;23.80;58.40
21393;DHT22;10857;52.228;21.026;2023-08-01T14:42:09;23.80;58.40
21393;DHT22;10857;52.228;21.026;2023-08-01T14:44:36;23.90;58.40
21393;DHT22;10857;52.228;21.026;2023-08-01T14:47:03;23.90;58.40
21393;DHT22;10857;52.228;21.026;2023-08-01T14:49:30;23.90;58.40
21393;DHT22;10857;52.228;21.026;2023-08-01T14:51:57;23.90;58.30
21393;DHT22;10857;52.228;21.026;2023-08-01T14:54:24;23.90;58.40
21393;DHT22;10857;52.228;21.026;2023-08-01T14:56:55;23.80;58.40
21393;DHT22;10857;52.228;21.026;2023-08-01T14:59:23;23.90;58.40
21393;DHT22;10857;52.228;21.026;2023-08-01T15:01:50;23.90;58.40
21393;DHT22;10857;52.228;21.026;2023-08-01T15:04:17;23.80;58.40
21393;DHT22;10857;52.228;21.026;2023-08-01T15:06:44;23.60;58.60
21393;DHT22;10857;52.228;21.026;2023-08-01T15:09:13;23.40;58.70
21393;DHT22;10857;52.228;21.026;2023-08-01T15:11:40;23.20;58.80
21393;DHT22;10857;52.228;21.026;2023-08-01T15:14:07;23.20;59.00
21393;DHT22;10857;52.228;21.026;2023-08-01T15:16:34;22.90;59.10
21393;DHT22;10857;52.228;21.026;2023-08-01T15:19:02;22.80;59.30
21393;DHT22;10857;52.228;21.026;2023-08-01T15:21:32;22.70;59.40